Time;durP1;ratioP1;P1;durP2;ratioP2;P2;SDS_P1;SDS_P2;PMS_P1;PMS_P2;Temp;Humidity;BMP_temperature;BMP_pressure;BME280_temperature;BME280_humidity;BME280_pressure;Samples;Min_cycle;Max_cycle;Signal;HPM_P1;HPM_P2
2022/05/17 00:02:00;;;;;;;19.63;4.88;;;20.00;50.20;;;;;;5077393;28;20060;-65
2022/05/17 00:04:39;;;;;;;13.80;4.30;;;20.00;50.80;;;;;;5081066;28;20088;-70
2022/05/17 00:07:11;;;;;;;16.88;5.07;;;20.00;50.30;;;;;;5083641;28;20090;-68
2022/05/17 00:09:58;;;;;;;13.60;5.07;;;20.00;50.60;;;;;;5082014;28;20089;-70
2022/05/17 00:12:24;;;;;;;7.90;4.13;;;20.00;50.70;;;;;;5080586;28;20108;-65
2022/05/17 00:14:51;;;;;;;11.85;4.72;;;20.00;50.60;;;;;;5076330;28;20012;-66
2022/05/17 00:17:17;;;;;;;12.88;5.75;;;20.00;50.60;;;;;;5083242;28;20454;-67
2022/05/17 00:19:44;;;;;;;13.05;5.53;;;20.00;50.50;;;;;;5079440;28;20394;-67
2022/05/17 00:22:10;;;;;;;7.88;4.72;;;20.00;50.50;;;;;;5085125;28;20059;-73
2022/05/17 00:24:40;;;;;;;14.30;5.97;;;20.00;50.40;;;;;;5074341;28;20035;-73
2022/05/17 00:27:08;;;;;;;17.00;6.13;;;19.90;50.30;;;;;;5079983;28;20045;-70
2022/05/17 00:29:34;;;;;;;19.60;5.45;;;19.90;50.20;;;;;;5081691;28;20083;-70
2022/05/17 00:32:01;;;;;;;14.38;5.00;;;19.90;50.20;;;;;;5078551;28;20024;-68
2022/05/17 00:34:27;;;;;;;11.45;5.63;;;19.90;50.30;;;;;;5080827;28;20069;-70
2022/05/17 00:36:54;;;;;;;19.02;6.30;;;19.90;50.00;;;;;;5083159;28;20024;-71
2022/05/17 00:39:21;;;;;;;13.50;4.97;;;19.80;49.80;;;;;;5095291;28;20016;-72
2022/05/17 00:41:47;;;;;;;13.90;4.55;;;19.80;49.80;;;;;;5084992;28;20028;-66
2022/05/17 00:47:23;;;;;;;21.03;5.40;;;19.80;49.60;;;;;;5091303;28;20093;-66
2022/05/17 00:50:07;;;;;;;12.65;5.35;;;19.80;49.70;;;;;;5085806;28;20042;-68
2022/05/17 00:52:46;;;;;;;19.35;5.72;;;19.70;50.40;;;;;;5080050;28;20020;-68
2022/05/17 00:55:24;;;;;;;12.80;5.35;;;19.70;49.90;;;;;;5081577;28;20425;-68
2022/05/17 00:58:13;;;;;;;13.38;5.00;;;19.70;50.00;;;;;;5086621;28;20382;-67
2022/05/17 01:01:03;;;;;;;15.40;4.75;;;19.70;50.20;;;;;;5080041;28;20016;-66
2022/05/17 01:03:55;;;;;;;16.65;4.00;;;19.60;50.30;;;;;;5085632;28;20367;-69
2022/05/17 01:06:25;;;;;;;13.77;5.97;;;19.70;50.50;;;;;;5085302;28;20024;-66
2022/05/17 01:08:51;;;;;;;15.57;5.07;;;19.60;50.50;;;;;;5084406;28;20547;-67
2022/05/17 01:11:18;;;;;;;10.07;4.75;;;19.60;50.50;;;;;;5087355;28;20012;-65
2022/05/17 01:16:30;;;;;;;16.33;5.47;;;19.60;50.60;;;;;;5082194;28;20109;-66
2022/05/17 01:18:56;;;;;;;16.90;5.22;;;19.60;50.60;;;;;;5084050;28;20546;-68
2022/05/17 01:21:23;;;;;;;20.67;5.30;;;19.60;50.90;;;;;;5080352;28;20016;-68
2022/05/17 01:23:49;;;;;;;12.40;5.50;;;19.60;50.80;;;;;;5081126;28;20378;-67
2022/05/17 01:26:23;;;;;;;13.65;5.20;;;19.60;50.60;;;;;;5085922;28;20077;-70
2022/05/17 01:28:50;;;;;;;14.98;5.15;;;19.50;50.30;;;;;;5084994;28;20112;-68
2022/05/17 01:31:18;;;;;;;20.38;5.60;;;19.50;50.10;;;;;;5080173;28;20028;-68
2022/05/17 01:33:45;;;;;;;11.10;5.72;;;19.50;50.10;;;;;;5083125;28;20136;-67
2022/05/17 01:36:14;;;;;;;14.13;5.35;;;19.50;50.00;;;;;;5081539;28;20709;-68
2022/05/17 01:38:45;;;;;;;13.13;5.70;;;19.50;49.90;;;;;;5087811;28;20658;-65
2022/05/17 01:41:12;;;;;;;18.98;6.90;;;19.50;49.90;;;;;;5079829;28;20033;-64
2022/05/17 01:43:38;;;;;;;18.15;6.50;;;19.50;49.70;;;;;;5083396;28;20558;-68
2022/05/17 01:46:09;;;;;;;14.43;6.53;;;19.50;49.70;;;;;;5082056;28;20020;-67
2022/05/17 01:48:37;;;;;;;10.40;5.53;;;19.50;49.80;;;;;;5081067;27;20048;-70
2022/05/17 01:51:06;;;;;;;12.43;5.30;;;19.40;49.70;;;;;;5085365;28;20082;-66
2022/05/17 01:53:33;;;;;;;11.70;5.82;;;19.40;49.60;;;;;;5082845;28;20040;-65
2022/05/17 01:56:02;;;;;;;15.02;5.40;;;19.40;49.60;;;;;;5088223;28;20023;-70
2022/05/17 01:58:29;;;;;;;7.57;4.38;;;19.40;49.50;;;;;;5087503;28;20035;-64
2022/05/17 02:00:55;;;;;;;10.68;5.05;;;19.40;49.40;;;;;;5078664;28;20028;-65
2022/05/17 02:03:22;;;;;;;13.90;5.25;;;19.40;49.40;;;;;;5077851;28;20020;-66
2022/05/17 02:05:48;;;;;;;13.30;4.22;;;19.30;49.20;;;;;;5086784;28;20016;-66
2022/05/17 02:08:15;;;;;;;10.85;3.88;;;19.30;49.20;;;;;;5082200;28;20028;-67
2022/05/17 02:10:42;;;;;;;11.02;4.15;;;19.40;49.10;;;;;;5081224;28;20028;-65
2022/05/17 02:13:08;;;;;;;7.00;3.78;;;19.30;49.00;;;;;;5083012;28;20036;-70
2022/05/17 02:15:36;;;;;;;14.93;4.05;;;19.30;49.00;;;;;;5081040;28;20070;-63
2022/05/17 02:18:02;;;;;;;12.93;3.83;;;19.30;49.00;;;;;;5082643;28;20463;-68
2022/05/17 02:20:30;;;;;;;14.90;3.72;;;19.30;49.10;;;;;;5079134;28;20411;-65
2022/05/17 02:22:57;;;;;;;12.73;3.90;;;19.30;49.10;;;;;;5086224;28;20474;-67
2022/05/17 02:25:23;;;;;;;12.10;3.53;;;19.20;49.10;;;;;;5072799;28;20033;-66
2022/05/17 02:27:50;;;;;;;7.40;4.00;;;19.30;49.30;;;;;;5081904;28;20043;-66
2022/05/17 02:30:16;;;;;;;14.43;4.20;;;19.20;49.40;;;;;;5087111;28;20032;-70
2022/05/17 02:32:43;;;;;;;16.05;5.07;;;19.30;49.60;;;;;;5084283;28;20020;-66
2022/05/17 02:35:11;;;;;;;13.23;2.90;;;19.20;49.80;;;;;;5082198;28;20056;-66
2022/05/17 02:37:37;;;;;;;10.90;3.28;;;19.20;50.00;;;;;;5080314;28;20391;-68
2022/05/17 02:40:05;;;;;;;7.78;3.20;;;19.20;50.40;;;;;;5074728;28;20483;-66
2022/05/17 02:42:31;;;;;;;9.77;3.75;;;19.20;50.50;;;;;;5090441;28;20462;-67
2022/05/17 02:44:58;;;;;;;9.43;3.45;;;19.20;50.60;;;;;;5079901;28;20490;-66
2022/05/17 02:47:24;;;;;;;13.70;3.17;;;19.20;50.70;;;;;;5088484;28;21042;-65
2022/05/17 02:49:51;;;;;;;7.40;2.90;;;19.20;50.80;;;;;;5078825;28;20034;-68
2022/05/17 02:52:18;;;;;;;6.00;2.63;;;19.20;50.90;;;;;;5076574;28;20039;-66
2022/05/17 02:54:44;;;;;;;7.80;3.10;;;19.20;51.00;;;;;;5086538;28;20475;-64
2022/05/17 02:57:11;;;;;;;7.90;2.40;;;19.20;51.00;;;;;;5082778;28;20040;-67
2022/05/17 02:59:37;;;;;;;8.25;2.35;;;19.20;51.10;;;;;;5082314;28;20040;-71
2022/05/17 03:02:04;;;;;;;8.35;2.28;;;19.20;51.10;;;;;;5074360;28;20407;-70
2022/05/17 03:04:31;;;;;;;13.65;2.33;;;19.20;51.20;;;;;;5083881;28;20066;-70
2022/05/17 03:06:57;;;;;;;23.80;3.13;;;19.20;51.20;;;;;;5080957;28;20555;-70
2022/05/17 03:09:24;;;;;;;7.25;2.33;;;19.10;51.20;;;;;;5087697;28;20120;-67
2022/05/17 03:11:51;;;;;;;6.70;1.88;;;19.10;51.20;;;;;;5083986;28;20025;-66
2022/05/17 03:14:18;;;;;;;10.10;3.00;;;19.10;51.20;;;;;;5085004;28;20025;-71
2022/05/17 03:16:48;;;;;;;4.88;1.52;;;19.10;51.10;;;;;;5080169;28;20502;-68
2022/05/17 03:19:17;;;;;;;7.25;2.58;;;19.10;51.10;;;;;;5083907;28;20458;-72
2022/05/17 03:21:43;;;;;;;9.45;2.60;;;19.10;51.10;;;;;;5083720;28;20032;-67
2022/05/17 03:24:12;;;;;;;12.00;2.78;;;19.10;51.40;;;;;;5082990;28;20027;-70
2022/05/17 03:26:44;;;;;;;9.13;3.05;;;19.10;51.60;;;;;;5071696;28;20036;-69
2022/05/17 03:29:11;;;;;;;4.55;2.10;;;19.10;51.20;;;;;;5080472;28;20037;-69
2022/05/17 03:31:40;;;;;;;5.43;1.77;;;19.10;50.80;;;;;;5084790;28;20753;-71
2022/05/17 03:34:06;;;;;;;7.72;3.03;;;19.10;50.60;;;;;;5082655;28;20028;-71
2022/05/17 03:36:33;;;;;;;12.05;3.60;;;19.00;50.60;;;;;;5083780;28;20016;-72
2022/05/17 03:38:59;;;;;;;7.85;3.17;;;19.00;50.80;;;;;;5083347;28;20019;-66
2022/05/17 03:41:26;;;;;;;6.05;2.50;;;19.00;50.90;;;;;;5079781;28;20016;-70
2022/05/17 03:43:52;;;;;;;9.82;2.28;;;19.00;50.80;;;;;;5083576;28;20498;-70
2022/05/17 03:46:20;;;;;;;9.82;2.05;;;19.00;50.60;;;;;;5083796;28;20056;-68
2022/05/17 03:48:47;;;;;;;9.52;2.20;;;19.00;50.50;;;;;;5077988;28;20112;-66
2022/05/17 03:51:16;;;;;;;3.85;1.60;;;19.00;50.50;;;;;;5083367;28;20085;-69
2022/05/17 03:53:44;;;;;;;12.15;2.03;;;19.00;50.50;;;;;;5076974;28;20024;-66
2022/05/17 03:56:14;;;;;;;8.57;2.05;;;19.00;50.60;;;;;;5076382;28;20085;-65
2022/05/17 03:59:20;;;;;;;6.25;2.33;;;19.00;50.70;;;;;;5076437;28;20040;-68
2022/05/17 04:02:26;;;;;;;10.90;3.17;;;19.00;50.80;;;;;;5074913;28;20016;-67
2022/05/17 04:05:35;;;;;;;10.40;2.15;;;19.00;51.00;;;;;;5083358;28;20031;-70
2022/05/17 04:08:41;;;;;;;20.65;6.80;;;19.00;51.00;;;;;;5083471;28;20128;-69
2022/05/17 04:11:47;;;;;;;27.48;13.15;;;18.90;52.20;;;;;;5083673;28;20071;-66
2022/05/17 04:14:14;;;;;;;33.92;23.23;;;18.90;52.30;;;;;;5086566;28;20364;-68
2022/05/17 04:16:40;;;;;;;33.17;17.42;;;18.80;52.60;;;;;;5085216;28;20115;-70
2022/05/17 04:19:07;;;;;;;23.48;11.23;;;18.80;52.80;;;;;;5086926;28;20042;-67
2022/05/17 04:21:35;;;;;;;17.80;7.47;;;18.80;52.90;;;;;;5083553;28;20216;-69
2022/05/17 04:24:02;;;;;;;24.38;15.65;;;18.80;52.80;;;;;;5084179;28;20100;-67
2022/05/17 04:26:28;;;;;;;38.28;26.73;;;18.80;52.50;;;;;;5091929;28;20020;-69
2022/05/17 04:28:55;;;;;;;34.13;23.75;;;18.80;52.50;;;;;;5082143;28;20078;-67
2022/05/17 04:31:21;;;;;;;22.13;15.38;;;18.90;52.80;;;;;;5087952;28;20013;-68
2022/05/17 04:33:48;;;;;;;11.20;7.15;;;18.80;52.90;;;;;;5086404;28;20024;-71
2022/05/17 04:36:14;;;;;;;14.85;5.57;;;18.90;52.90;;;;;;5082899;28;20017;-70
2022/05/17 04:38:41;;;;;;;9.93;3.13;;;18.90;52.90;;;;;;5086207;28;20459;-70
2022/05/17 04:41:07;;;;;;;9.32;3.13;;;18.90;52.80;;;;;;5084005;28;20483;-72
2022/05/17 04:43:34;;;;;;;11.50;3.47;;;18.90;52.80;;;;;;5079997;28;20361;-74
2022/05/17 04:46:00;;;;;;;7.28;2.50;;;18.90;52.80;;;;;;5075361;28;20056;-75
2022/05/17 04:48:27;;;;;;;25.67;3.90;;;18.90;52.90;;;;;;5081455;28;20459;-69
2022/05/17 04:50:54;;;;;;;10.50;3.22;;;18.90;53.10;;;;;;5080706;28;20448;-69
2022/05/17 04:53:21;;;;;;;12.35;2.78;;;18.80;53.20;;;;;;5086508;28;20505;-71
2022/05/17 04:55:48;;;;;;;5.13;2.92;;;18.80;53.10;;;;;;5085506;28;20058;-68
2022/05/17 04:58:14;;;;;;;8.10;2.88;;;18.80;53.10;;;;;;5083956;28;20126;-69
2022/05/17 05:00:41;;;;;;;13.77;3.65;;;18.80;53.20;;;;;;5087980;28;20030;-67
2022/05/17 05:03:07;;;;;;;15.88;2.65;;;18.80;53.30;;;;;;5082483;28;20093;-68
2022/05/17 05:05:34;;;;;;;11.80;2.42;;;18.80;53.60;;;;;;5079431;28;20029;-70
2022/05/17 05:08:01;;;;;;;11.77;3.00;;;18.70;53.60;;;;;;5079488;28;20168;-67
2022/05/17 05:10:27;;;;;;;8.20;3.00;;;18.80;53.90;;;;;;5081093;28;20753;-69
2022/05/17 05:12:53;;;;;;;10.45;4.05;;;18.80;54.00;;;;;;5081236;28;20512;-73
2022/05/17 05:15:20;;;;;;;10.65;2.67;;;18.70;54.00;;;;;;5088780;28;20024;-68
2022/05/17 05:17:46;;;;;;;19.35;4.38;;;18.70;54.00;;;;;;5085448;28;20017;-71
2022/05/17 05:20:17;;;;;;;13.90;4.97;;;18.70;53.90;;;;;;5077412;28;20593;-72
2022/05/17 05:22:44;;;;;;;13.85;4.07;;;18.70;53.50;;;;;;5081981;28;20028;-71
2022/05/17 05:25:13;;;;;;;13.82;3.95;;;18.70;53.20;;;;;;5078794;28;20120;-70
2022/05/17 05:27:41;;;;;;;6.57;4.00;;;18.70;53.00;;;;;;5079189;28;20115;-73
2022/05/17 05:30:11;;;;;;;7.90;3.38;;;18.70;52.80;;;;;;5083501;28;20112;-71
2022/05/17 05:32:38;;;;;;;15.77;3.58;;;18.60;52.70;;;;;;5087721;28;20107;-72
2022/05/17 05:35:05;;;;;;;10.25;3.53;;;18.60;52.80;;;;;;5084068;28;20479;-73
2022/05/17 05:37:31;;;;;;;9.90;3.55;;;18.60;52.80;;;;;;5080253;28;20031;-70
2022/05/17 05:39:58;;;;;;;16.35;3.90;;;18.60;53.00;;;;;;5083156;28;20110;-74
2022/05/17 05:42:24;;;;;;;10.52;3.22;;;18.60;53.10;;;;;;5082572;28;20039;-73
2022/05/17 05:44:51;;;;;;;18.75;4.72;;;18.60;53.20;;;;;;5081167;28;20013;-68
2022/05/17 05:47:18;;;;;;;14.07;4.32;;;18.50;53.20;;;;;;5082019;28;20032;-72
2022/05/17 05:49:44;;;;;;;13.70;4.55;;;18.50;53.40;;;;;;5086916;28;20032;-72
2022/05/17 05:52:11;;;;;;;9.60;3.88;;;18.50;53.50;;;;;;5083658;28;20058;-72
2022/05/17 05:54:37;;;;;;;10.90;4.60;;;18.50;53.70;;;;;;5084151;28;20099;-72
2022/05/17 05:57:04;;;;;;;14.52;4.43;;;18.50;53.80;;;;;;5077728;28;20487;-71
2022/05/17 05:59:31;;;;;;;12.35;4.90;;;18.50;53.90;;;;;;5094519;28;20120;-73
2022/05/17 06:02:00;;;;;;;12.98;4.25;;;18.50;54.10;;;;;;5078385;28;20147;-72
2022/05/17 06:04:27;;;;;;;14.93;5.63;;;18.50;54.30;;;;;;5084631;28;20091;-68
2022/05/17 06:06:56;;;;;;;22.65;4.45;;;18.50;54.40;;;;;;5080760;28;20025;-73
2022/05/17 06:09:24;;;;;;;20.67;7.32;;;18.50;54.50;;;;;;5086939;28;20100;-73
2022/05/17 06:11:51;;;;;;;17.02;5.88;;;18.50;54.60;;;;;;5080895;28;20033;-71
2022/05/17 06:14:20;;;;;;;14.48;4.07;;;18.40;54.70;;;;;;5090469;28;20020;-70
2022/05/17 06:16:48;;;;;;;15.10;4.30;;;18.40;54.80;;;;;;5083135;28;20031;-69
2022/05/17 06:19:14;;;;;;;11.38;4.45;;;18.40;54.90;;;;;;5080759;28;20058;-71
2022/05/17 06:21:41;;;;;;;15.10;4.05;;;18.40;55.10;;;;;;5080783;28;20096;-68
2022/05/17 06:24:08;;;;;;;6.50;4.57;;;18.40;55.30;;;;;;5075659;28;20056;-70
2022/05/17 06:26:35;;;;;;;11.85;4.03;;;18.40;55.40;;;;;;5084229;28;20024;-69
2022/05/17 06:29:02;;;;;;;7.78;2.72;;;18.40;55.60;;;;;;5088768;28;20111;-71
2022/05/17 06:31:28;;;;;;;9.05;3.13;;;18.40;55.70;;;;;;5076090;28;20057;-70
2022/05/17 06:33:55;;;;;;;11.48;3.47;;;18.40;55.80;;;;;;5078301;28;20024;-73
2022/05/17 06:36:21;;;;;;;10.50;5.15;;;18.40;55.80;;;;;;5084874;28;20390;-68
2022/05/17 06:38:48;;;;;;;14.27;4.18;;;18.40;55.90;;;;;;5079754;28;20074;-71
2022/05/17 06:41:15;;;;;;;9.88;3.40;;;18.40;56.00;;;;;;5081245;28;20017;-73
2022/05/17 06:43:41;;;;;;;13.43;4.10;;;18.40;56.00;;;;;;5080701;28;20446;-69
2022/05/17 06:46:08;;;;;;;13.07;3.80;;;18.40;56.10;;;;;;5089637;28;20027;-73
2022/05/17 06:48:34;;;;;;;10.23;5.25;;;18.50;56.20;;;;;;5074774;28;20067;-70
2022/05/17 06:51:06;;;;;;;9.20;4.97;;;18.40;56.30;;;;;;5079454;28;20327;-72
2022/05/17 06:53:33;;;;;;;12.82;5.32;;;18.40;56.40;;;;;;5084344;28;20027;-72
2022/05/17 06:56:03;;;;;;;11.63;5.20;;;18.50;56.40;;;;;;5088777;28;20052;-72
2022/05/17 06:58:30;;;;;;;16.10;4.40;;;18.50;56.50;;;;;;5086245;28;20080;-72
2022/05/17 07:00:56;;;;;;;11.63;4.45;;;18.50;56.80;;;;;;5084666;28;20529;-69
2022/05/17 07:03:23;;;;;;;18.88;4.60;;;18.50;56.90;;;;;;5080396;28;20020;-69
2022/05/17 07:05:51;;;;;;;16.20;4.93;;;18.50;57.00;;;;;;5086741;28;20028;-71
2022/05/17 07:08:18;;;;;;;9.07;4.43;;;18.50;56.90;;;;;;5080884;28;20123;-71
2022/05/17 07:13:30;;;;;;;13.05;4.55;;;18.60;57.20;;;;;;5086030;28;20073;-69
2022/05/17 07:15:56;;;;;;;19.83;5.28;;;18.60;57.30;;;;;;5083534;28;20452;-68
2022/05/17 07:18:26;;;;;;;18.55;6.10;;;18.60;57.50;;;;;;5085331;28;20027;-73
2022/05/17 07:20:52;;;;;;;20.90;5.55;;;18.60;57.70;;;;;;5076664;28;20021;-67
2022/05/17 07:23:21;;;;;;;14.60;7.13;;;18.70;58.40;;;;;;5082131;28;20028;-69
2022/05/17 07:25:48;;;;;;;11.25;5.30;;;18.70;58.20;;;;;;5080451;28;20043;-68
2022/05/17 07:28:17;;;;;;;15.57;5.63;;;18.70;58.00;;;;;;5080164;28;20064;-70
2022/05/17 07:30:44;;;;;;;17.48;5.38;;;18.70;57.90;;;;;;5079415;28;20105;-73
2022/05/17 07:33:11;;;;;;;12.35;5.22;;;18.80;57.70;;;;;;5086811;28;20103;-70
2022/05/17 07:35:38;;;;;;;17.27;5.82;;;18.80;57.60;;;;;;5083730;28;20483;-70
2022/05/17 07:38:06;;;;;;;19.92;5.85;;;18.80;57.40;;;;;;5076149;28;20017;-73
2022/05/17 07:40:33;;;;;;;12.98;5.68;;;18.90;57.40;;;;;;5088671;28;20027;-70
2022/05/17 07:43:00;;;;;;;16.30;5.93;;;18.90;57.30;;;;;;5075352;28;20442;-67
2022/05/17 07:45:27;;;;;;;17.02;6.55;;;18.90;57.20;;;;;;5081058;28;20427;-72
2022/05/17 07:47:54;;;;;;;12.77;6.05;;;19.00;57.10;;;;;;5081152;28;20039;-72
2022/05/17 07:50:20;;;;;;;16.25;6.20;;;19.00;57.20;;;;;;5077629;28;20029;-72
2022/05/17 07:52:47;;;;;;;20.55;5.82;;;19.00;57.20;;;;;;5085535;28;20474;-74
2022/05/17 07:55:14;;;;;;;17.00;5.78;;;19.10;57.40;;;;;;5080802;28;20032;-67
2022/05/17 07:57:40;;;;;;;13.55;6.15;;;19.10;57.50;;;;;;5074817;28;20060;-71
2022/05/17 08:00:08;;;;;;;19.90;6.40;;;19.20;57.70;;;;;;5081120;28;20107;-73
2022/05/17 08:02:35;;;;;;;20.00;7.00;;;19.20;57.70;;;;;;5081303;28;20024;-72
2022/05/17 08:05:02;;;;;;;13.82;6.28;;;19.20;57.80;;;;;;5086850;28;20470;-72
2022/05/17 08:07:28;;;;;;;18.30;7.93;;;19.30;57.70;;;;;;5083534;28;20067;-72
2022/05/17 08:09:55;;;;;;;18.42;6.65;;;19.30;57.60;;;;;;5084081;28;20524;-73
2022/05/17 08:12:21;;;;;;;13.50;7.00;;;19.30;57.50;;;;;;5082465;28;20051;-73
2022/05/17 08:14:48;;;;;;;13.38;7.50;;;19.40;57.70;;;;;;5083910;28;20021;-74
2022/05/17 08:17:14;;;;;;;26.13;6.80;;;19.40;57.80;;;;;;5082661;28;20114;-68
2022/05/17 08:19:41;;;;;;;16.85;6.82;;;19.50;57.60;;;;;;5075503;28;20070;-73
2022/05/17 08:22:12;;;;;;;15.88;6.47;;;19.50;57.60;;;;;;5081904;28;20025;-73
2022/05/17 08:27:36;;;;;;;21.70;8.25;;;19.60;57.10;;;;;;5077377;28;20051;-73
2022/05/17 08:30:10;;;;;;;14.05;6.60;;;19.70;57.00;;;;;;5076738;28;20028;-73
2022/05/17 08:35:28;;;;;;;21.20;7.15;;;19.80;56.40;;;;;;5080308;28;20028;-74
2022/05/17 08:37:55;;;;;;;16.80;6.78;;;19.80;56.30;;;;;;5076519;28;20031;-73
2022/05/17 08:40:23;;;;;;;16.70;7.32;;;19.90;56.10;;;;;;5083993;28;20029;-74
2022/05/17 08:42:58;;;;;;;14.93;5.80;;;19.90;55.90;;;;;;5078747;28;20027;-73
2022/05/17 08:45:36;;;;;;;12.93;6.70;;;20.00;55.90;;;;;;5084724;28;20032;-73
2022/05/17 08:48:04;;;;;;;14.98;5.75;;;20.10;55.90;;;;;;5078323;28;20032;-73
2022/05/17 08:50:34;;;;;;;18.02;7.00;;;20.10;55.60;;;;;;5087124;28;20019;-72
2022/05/17 08:53:02;;;;;;;14.13;5.68;;;20.20;55.10;;;;;;5082453;28;20021;-74
2022/05/17 08:55:40;;;;;;;27.55;7.13;;;20.20;54.40;;;;;;5087260;28;20094;-67
2022/05/17 08:58:28;;;;;;;18.38;5.47;;;20.30;53.60;;;;;;5078671;28;20040;-66
2022/05/17 09:01:10;;;;;;;12.63;5.40;;;20.30;52.30;;;;;;5086570;28;20539;-68
2022/05/17 09:03:52;;;;;;;19.38;5.50;;;20.40;51.70;;;;;;5087591;28;20055;-70
2022/05/17 09:06:34;;;;;;;14.18;5.22;;;20.40;51.50;;;;;;5080224;28;20058;-69
2022/05/17 09:09:10;;;;;;;14.93;5.88;;;20.50;51.70;;;;;;5084922;28;20020;-66
2022/05/17 09:11:39;;;;;;;14.90;5.55;;;20.50;52.10;;;;;;5082300;28;20024;-70
2022/05/17 09:14:06;;;;;;;22.65;6.13;;;20.60;52.90;;;;;;5087476;28;20428;-70
2022/05/17 09:16:39;;;;;;;17.67;5.28;;;20.60;53.10;;;;;;5085066;28;20031;-68
2022/05/17 09:19:06;;;;;;;13.63;5.47;;;20.70;53.10;;;;;;5081058;28;20024;-70
2022/05/17 09:21:38;;;;;;;15.20;6.90;;;20.70;52.80;;;;;;5084890;28;20020;-71
2022/05/17 09:24:10;;;;;;;16.90;6.28;;;20.80;52.30;;;;;;5084734;28;20021;-73
2022/05/17 09:26:39;;;;;;;23.20;8.82;;;20.90;52.30;;;;;;5081976;28;20035;-67
2022/05/17 09:29:17;;;;;;;21.77;6.80;;;20.90;52.10;;;;;;5079551;28;20090;-69
2022/05/17 09:31:59;;;;;;;16.33;5.00;;;21.00;52.00;;;;;;5087530;28;20026;-70
2022/05/17 09:34:34;;;;;;;19.80;7.07;;;21.10;51.70;;;;;;5086670;28;20069;-69
2022/05/17 09:37:26;;;;;;;13.90;5.63;;;21.10;51.30;;;;;;5084721;28;20029;-69
2022/05/17 09:39:53;;;;;;;16.67;5.82;;;21.20;50.80;;;;;;5081914;28;20042;-72
2022/05/17 09:42:29;;;;;;;16.23;5.45;;;21.20;50.60;;;;;;5078738;28;20024;-73
2022/05/17 09:44:56;;;;;;;17.77;6.85;;;21.30;50.50;;;;;;5082706;28;20103;-73
2022/05/17 09:47:32;;;;;;;23.45;7.70;;;21.40;50.30;;;;;;5084923;28;20037;-72
2022/05/17 09:53:05;;;;;;;19.70;5.88;;;21.50;50.20;;;;;;5079928;28;20059;-72
2022/05/17 09:55:34;;;;;;;15.90;6.00;;;21.50;50.20;;;;;;5079334;28;20062;-69
2022/05/17 09:58:02;;;;;;;16.17;5.75;;;21.60;49.80;;;;;;5084298;28;20514;-68
2022/05/17 10:00:41;;;;;;;13.98;6.05;;;21.70;49.80;;;;;;5081407;28;20022;-70
2022/05/17 10:03:13;;;;;;;18.75;6.43;;;21.70;49.90;;;;;;5089892;28;20028;-68
2022/05/17 10:05:40;;;;;;;15.98;5.35;;;21.80;49.70;;;;;;5074566;28;20020;-73
2022/05/17 10:08:15;;;;;;;20.98;6.03;;;21.90;49.50;;;;;;5082911;28;20123;-71
2022/05/17 10:11:06;;;;;;;26.75;6.80;;;22.00;48.10;;;;;;5085847;28;20031;-70
2022/05/17 10:13:52;;;;;;;21.13;6.30;;;22.00;48.00;;;;;;5072186;28;20039;-72
2022/05/17 10:16:30;;;;;;;;;;;22.20;47.30;;;;;;5085848;28;20379;-73
2022/05/17 10:19:33;;;;;;;27.88;6.30;;;22.30;46.90;;;;;;5081363;28;20379;-74
2022/05/17 10:22:22;;;;;;;16.58;6.15;;;22.40;45.80;;;;;;5083142;28;20400;-72
2022/05/17 10:25:06;;;;;;;16.10;5.65;;;22.50;45.80;;;;;;5080252;28;20154;-70
2022/05/17 10:27:49;;;;;;;23.42;7.25;;;22.60;45.00;;;;;;5082107;28;20036;-70
2022/05/17 10:30:25;;;;;;;14.35;5.80;;;22.80;44.50;;;;;;5080249;28;20025;-74
2022/05/17 10:33:11;;;;;;;15.98;5.88;;;22.90;44.10;;;;;;5083859;28;20344;-73
2022/05/17 10:35:42;;;;;;;;;;;23.00;43.70;;;;;;5084008;28;20087;-71
2022/05/17 10:38:10;;;;;;;24.20;6.07;;;23.10;42.20;;;;;;5077980;28;19915;-75
2022/05/17 10:40:43;;;;;;;16.27;6.18;;;23.20;41.90;;;;;;5080475;28;20049;-74
2022/05/17 10:43:23;;;;;;;8.48;4.50;;;23.20;41.70;;;;;;5087228;28;20408;-72
2022/05/17 10:46:12;;;;;;;14.63;5.60;;;23.30;41.20;;;;;;5085475;28;20039;-72
2022/05/17 10:49:11;;;;;;;17.67;5.50;;;23.40;40.30;;;;;;5078207;28;20094;-72
2022/05/17 10:51:46;;;;;;;19.95;6.32;;;23.50;39.90;;;;;;5053603;28;20051;-73
2022/05/17 10:54:24;;;;;;;15.30;5.03;;;23.60;40.60;;;;;;5084143;28;20383;-73
2022/05/17 10:57:07;;;;;;;26.25;6.05;;;23.60;40.40;;;;;;5081004;28;20019;-73
2022/05/17 10:59:45;;;;;;;15.43;5.03;;;23.70;40.50;;;;;;5079173;28;20663;-73
2022/05/17 11:02:33;;;;;;;11.05;4.55;;;23.80;41.20;;;;;;5077523;28;20111;-70
2022/05/17 11:05:09;;;;;;;33.67;7.65;;;23.90;40.60;;;;;;5083987;28;20025;-70
2022/05/17 11:07:43;;;;;;;38.80;6.65;;;23.90;41.20;;;;;;5082068;28;20044;-72
2022/05/17 11:10:32;;;;;;;20.15;6.57;;;23.90;41.70;;;;;;5080488;28;20031;-72
2022/05/17 11:13:19;;;;;;;11.55;4.22;;;24.00;40.20;;;;;;5086851;28;20016;-71
2022/05/17 11:16:06;;;;;;;15.65;4.65;;;24.00;39.80;;;;;;5090549;28;20458;-74
2022/05/17 11:18:48;;;;;;;15.13;4.75;;;24.00;39.20;;;;;;5065871;28;20067;-72
2022/05/17 11:21:33;;;;;;;20.25;4.97;;;24.00;38.80;;;;;;5081922;28;20547;-70
2022/05/17 11:24:14;;;;;;;;;;;24.00;38.50;;;;;;5081186;28;20039;-70
2022/05/17 11:27:15;;;;;;;20.05;5.07;;;23.90;38.30;;;;;;5085113;28;19915;-72
2022/05/17 11:30:08;;;;;;;15.40;4.93;;;23.90;38.40;;;;;;5076802;28;20124;-72
2022/05/17 11:32:39;;;;;;;15.85;4.53;;;23.90;38.30;;;;;;5084151;28;20032;-72
2022/05/17 11:35:27;;;;;;;13.07;4.07;;;23.90;38.10;;;;;;5089013;28;20118;-71
2022/05/17 11:37:55;;;;;;;8.98;3.90;;;23.90;36.90;;;;;;5083415;28;20066;-73
2022/05/17 11:40:43;;;;;;;12.27;3.83;;;23.90;36.30;;;;;;5078589;28;20433;-71
2022/05/17 11:45:57;;;;;;;15.32;3.60;;;23.90;36.40;;;;;;5089641;28;20125;-74
2022/05/17 11:49:09;;;;;;;9.82;3.00;;;23.90;36.00;;;;;;5078013;28;20036;-73
2022/05/17 11:51:59;;;;;;;7.50;2.92;;;23.90;35.00;;;;;;5061618;28;20048;-72
2022/05/17 11:54:44;;;;;;;11.75;2.80;;;23.90;34.00;;;;;;5076029;28;20497;-72
2022/05/17 11:57:33;;;;;;;8.35;2.78;;;23.90;33.60;;;;;;5078266;28;20032;-74
2022/05/17 12:00:04;;;;;;;8.75;2.88;;;24.00;34.40;;;;;;5078017;28;20033;-72
2022/05/17 12:02:52;;;;;;;9.05;2.88;;;24.00;34.60;;;;;;5080613;28;20070;-74
2022/05/17 12:05:47;;;;;;;7.10;2.78;;;24.00;35.30;;;;;;5089855;28;20674;-72
2022/05/17 12:08:46;;;;;;;9.27;2.92;;;24.00;35.60;;;;;;5078504;28;20044;-68
2022/05/17 12:11:30;;;;;;;10.55;2.63;;;24.00;36.20;;;;;;5037456;28;20041;-73
2022/05/17 12:14:35;;;;;;;10.95;2.70;;;24.00;36.50;;;;;;5085390;28;20017;-72
2022/05/17 12:17:08;;;;;;;8.07;3.53;;;24.00;36.90;;;;;;5092915;28;20398;-72
2022/05/17 12:19:46;;;;;;;12.25;3.03;;;24.00;37.70;;;;;;5077071;28;20020;-73
2022/05/17 12:22:24;;;;;;;9.00;3.13;;;24.00;37.50;;;;;;5093281;28;20047;-69
2022/05/17 12:25:23;;;;;;;9.90;3.08;;;24.00;36.50;;;;;;5075470;28;20361;-69
2022/05/17 12:27:50;;;;;;;8.18;2.45;;;24.00;36.80;;;;;;5074289;28;20037;-72
2022/05/17 12:33:05;;;;;;;15.35;3.03;;;23.90;36.90;;;;;;5080557;28;20078;-72
2022/05/17 12:35:32;;;;;;;7.82;2.90;;;23.90;36.30;;;;;;5082288;28;20042;-73
2022/05/17 12:37:59;;;;;;;10.98;3.30;;;23.90;36.30;;;;;;5089332;28;20020;-72
2022/05/17 12:43:13;;;;;;;;;;;23.90;37.00;;;;;;5086280;28;20390;-73
2022/05/17 12:45:49;;;;;;;8.82;3.25;;;23.80;37.30;;;;;;5089293;28;19908;-75
2022/05/17 12:48:20;;;;;;;8.63;3.30;;;23.80;37.70;;;;;;5079247;28;20032;-73
2022/05/17 12:50:53;;;;;;;12.38;2.85;;;23.80;37.90;;;;;;5078909;28;20028;-74
2022/05/17 12:53:47;;;;;;;8.00;3.45;;;23.80;37.30;;;;;;5084275;28;20020;-71
2022/05/17 12:56:17;;;;;;;4.88;2.90;;;23.70;36.80;;;;;;5090512;28;20432;-73
2022/05/17 12:58:54;;;;;;;4.47;2.72;;;23.70;36.70;;;;;;5079122;28;20575;-72
2022/05/17 13:01:30;;;;;;;7.32;2.50;;;23.70;36.40;;;;;;5083976;28;20035;-73
2022/05/17 13:03:59;;;;;;;5.38;2.88;;;23.70;35.90;;;;;;5086170;28;20048;-74
2022/05/17 13:06:40;;;;;;;9.40;2.97;;;23.70;35.70;;;;;;5080794;28;20019;-73
2022/05/17 13:09:19;;;;;;;8.57;2.78;;;23.70;35.60;;;;;;5079085;28;20494;-71
2022/05/17 13:11:46;;;;;;;5.85;3.00;;;23.60;35.50;;;;;;5081997;28;20103;-73
2022/05/17 13:14:27;;;;;;;4.80;3.28;;;23.60;35.30;;;;;;5081433;28;20021;-72
2022/05/17 13:17:06;;;;;;;4.38;3.30;;;23.60;35.10;;;;;;5086393;28;20024;-74
2022/05/17 13:19:34;;;;;;;6.75;3.03;;;23.60;35.20;;;;;;5083655;28;20031;-72
2022/05/17 13:22:01;;;;;;;5.85;2.53;;;23.60;35.40;;;;;;5087766;28;20495;-74
2022/05/17 13:24:43;;;;;;;4.53;2.97;;;23.60;35.40;;;;;;5083072;28;20020;-73
2022/05/17 13:27:37;;;;;;;8.48;3.40;;;23.60;35.40;;;;;;5080198;28;20043;-75
2022/05/17 13:30:28;;;;;;;6.00;2.80;;;23.60;35.50;;;;;;5082093;28;20783;-73
2022/05/17 13:32:55;;;;;;;7.05;2.65;;;23.70;35.80;;;;;;5080982;28;20028;-74